createdAt,value
2018-07-10T00:04:54.039Z,43.10
2018-07-10T00:07:47.620Z,43.10
2018-07-10T00:10:25.843Z,43.10
2018-07-10T00:15:21.907Z,42.90
2018-07-10T00:17:49.999Z,43.00
2018-07-10T00:20:18.087Z,43.10
2018-07-10T00:22:46.187Z,43.10
2018-07-10T00:27:42.191Z,43.20
2018-07-10T00:30:10.280Z,43.20
2018-07-10T00:32:38.399Z,43.30
2018-07-10T00:35:06.484Z,43.30
2018-07-10T00:37:34.600Z,43.30
2018-07-10T00:40:02.700Z,43.50
2018-07-10T00:44:58.687Z,43.40
2018-07-10T00:47:26.763Z,43.40
2018-07-10T00:49:54.851Z,43.40
2018-07-10T00:52:29.332Z,43.30
2018-07-10T00:54:57.595Z,43.40
2018-07-10T00:57:25.721Z,43.40
2018-07-10T00:59:54.322Z,43.50
2018-07-10T01:02:22.441Z,43.50
2018-07-10T01:04:50.551Z,43.40
2018-07-10T01:07:18.661Z,43.60
2018-07-10T01:09:46.775Z,43.70
2018-07-10T01:12:14.897Z,43.50
2018-07-10T01:14:43.030Z,43.50
2018-07-10T01:17:11.112Z,43.40
2018-07-10T01:19:39.196Z,43.50
2018-07-10T01:22:07.346Z,43.50
2018-07-10T01:24:35.458Z,43.50
2018-07-10T01:27:03.592Z,43.30
2018-07-10T01:29:37.071Z,43.20
2018-07-10T01:32:05.179Z,43.10
2018-07-10T01:34:33.273Z,43.20
2018-07-10T01:37:01.407Z,43.40
2018-07-10T01:39:29.479Z,43.60
2018-07-10T01:41:57.607Z,43.60
2018-07-10T01:44:25.727Z,44.00
2018-07-10T01:46:53.835Z,43.50
2018-07-10T01:51:49.955Z,43.60
2018-07-10T01:54:18.085Z,43.50
2018-07-10T01:56:46.232Z,43.60
2018-07-10T01:59:15.207Z,43.70
2018-07-10T02:01:43.324Z,43.70
2018-07-10T02:04:11.450Z,43.70
2018-07-10T02:06:39.577Z,43.80
2018-07-10T02:09:07.707Z,43.60
2018-07-10T02:11:35.856Z,43.70
2018-07-10T02:14:04.032Z,43.80
2018-07-10T02:16:32.135Z,43.80
2018-07-10T02:21:28.251Z,43.90
2018-07-10T02:23:56.339Z,44.00
2018-07-10T02:26:26.884Z,44.00
2018-07-10T02:31:23.487Z,44.00
2018-07-10T02:33:52.319Z,43.90
2018-07-10T02:38:49.898Z,44.00
2018-07-10T02:41:19.260Z,44.00
2018-07-10T02:43:52.679Z,43.90
2018-07-10T02:46:20.817Z,44.00
2018-07-10T02:48:48.995Z,44.00
2018-07-10T02:51:17.080Z,44.00
2018-07-10T02:53:45.493Z,44.20
2018-07-10T02:56:15.128Z,44.70
2018-07-10T02:58:43.236Z,44.20
2018-07-10T03:01:11.359Z,44.10
2018-07-10T03:03:41.495Z,44.20
2018-07-10T03:06:09.600Z,44.20
2018-07-10T03:08:37.714Z,44.30
2018-07-10T03:11:06.064Z,44.30
2018-07-10T03:13:34.372Z,44.30
2018-07-10T03:16:02.619Z,44.10
2018-07-10T03:18:31.362Z,44.20
2018-07-10T03:20:59.468Z,44.20
2018-07-10T03:23:27.580Z,44.30
2018-07-10T03:25:55.700Z,44.40
2018-07-10T03:28:23.827Z,44.40
2018-07-10T03:30:51.919Z,44.50
2018-07-10T03:33:20.020Z,44.50
2018-07-10T03:35:48.171Z,44.50
2018-07-10T03:38:16.289Z,44.40
2018-07-10T03:40:44.396Z,44.40
2018-07-10T03:43:12.511Z,44.40
2018-07-10T03:45:40.601Z,44.50
2018-07-10T03:48:08.696Z,44.40
2018-07-10T03:50:37.033Z,44.40
2018-07-10T03:53:05.230Z,44.50
2018-07-10T03:55:36.200Z,44.50
2018-07-10T03:58:04.311Z,44.50
2018-07-10T04:00:34.208Z,44.40
2018-07-10T04:03:02.293Z,44.50
2018-07-10T04:05:30.387Z,44.60
2018-07-10T04:07:58.624Z,44.70
2018-07-10T04:10:29.120Z,44.80
2018-07-10T04:12:57.946Z,44.80
2018-07-10T04:15:26.010Z,44.80
2018-07-10T04:17:58.675Z,45.30
2018-07-10T04:20:30.577Z,44.70
2018-07-10T04:22:58.675Z,44.70
2018-07-10T04:25:31.604Z,44.70
2018-07-10T04:28:05.675Z,44.80
2018-07-10T04:30:44.340Z,44.70
2018-07-10T04:33:12.876Z,44.70
2018-07-10T04:35:40.962Z,44.80
2018-07-10T04:38:09.096Z,44.80
2018-07-10T04:40:37.203Z,44.80
2018-07-10T04:43:08.816Z,44.90
2018-07-10T04:45:44.132Z,44.80
2018-07-10T04:48:24.276Z,44.70
2018-07-10T04:50:52.717Z,44.80
2018-07-10T04:53:40.588Z,44.80
2018-07-10T04:56:08.957Z,44.70
2018-07-10T04:58:37.067Z,44.60
2018-07-10T05:01:05.183Z,44.70
2018-07-10T05:03:36.363Z,44.80
2018-07-10T05:06:06.388Z,44.80
2018-07-10T05:08:35.618Z,44.80
2018-07-10T05:11:03.778Z,44.80
2018-07-10T05:13:31.902Z,44.80
2018-07-10T05:16:03.410Z,44.70
2018-07-10T05:18:32.034Z,44.80
2018-07-10T05:21:00.315Z,44.60
2018-07-10T05:23:28.410Z,44.50
2018-07-10T05:25:57.127Z,44.50
2018-07-10T05:28:25.725Z,44.70
2018-07-10T05:30:57.545Z,44.80
2018-07-10T05:33:25.665Z,44.80
2018-07-10T05:35:54.585Z,44.80
2018-07-10T05:38:26.641Z,44.80
2018-07-10T05:40:54.776Z,44.80
2018-07-10T05:43:22.889Z,44.80
2018-07-10T05:45:51.055Z,44.80
2018-07-10T05:48:19.163Z,44.80
2018-07-10T05:50:47.276Z,44.80
2018-07-10T05:53:15.393Z,45.40
2018-07-10T05:55:45.091Z,45.40
2018-07-10T05:58:13.192Z,44.70
2018-07-10T06:00:41.281Z,44.80
2018-07-10T06:03:09.382Z,44.70
2018-07-10T06:05:37.567Z,44.70
2018-07-10T06:08:05.692Z,44.90
2018-07-10T06:10:33.832Z,44.80
2018-07-10T06:13:02.544Z,45.30
2018-07-10T06:15:30.815Z,44.70
2018-07-10T06:17:58.920Z,44.80
2018-07-10T06:20:27.268Z,44.80
2018-07-10T06:22:57.072Z,44.80
2018-07-10T06:25:26.647Z,44.80
2018-07-10T06:28:12.911Z,44.80
2018-07-10T06:30:41.926Z,44.70
2018-07-10T06:33:19.651Z,44.90
2018-07-10T06:35:51.845Z,45.00
2018-07-10T06:38:19.942Z,44.90
2018-07-10T06:40:49.035Z,44.80
2018-07-10T06:43:42.732Z,44.80
2018-07-10T06:46:11.678Z,44.80
2018-07-10T06:48:42.336Z,44.60
2018-07-10T06:51:15.057Z,44.70
2018-07-10T06:53:43.495Z,44.60
2018-07-10T06:56:11.568Z,44.60
2018-07-10T06:58:39.660Z,44.70
2018-07-10T07:01:07.752Z,44.80
2018-07-10T07:03:35.851Z,44.70
2018-07-10T07:06:03.976Z,44.70
2018-07-10T07:08:32.093Z,44.70
2018-07-10T07:11:00.179Z,44.80
2018-07-10T07:13:28.372Z,44.70
2018-07-10T07:15:56.500Z,44.60
2018-07-10T07:18:24.561Z,44.80
2018-07-10T07:20:52.643Z,44.60
2018-07-10T07:23:20.732Z,44.60
2018-07-10T07:25:48.838Z,44.50
2018-07-10T07:28:16.924Z,44.40
2018-07-10T07:30:45.042Z,44.40
2018-07-10T07:33:13.115Z,44.30
2018-07-10T07:35:41.176Z,44.30
2018-07-10T07:38:09.259Z,44.40
2018-07-10T07:40:37.332Z,44.40
2018-07-10T07:43:05.437Z,44.50
2018-07-10T07:45:33.506Z,44.50
2018-07-10T07:48:01.586Z,44.60
2018-07-10T07:50:29.671Z,45.20
2018-07-10T07:52:57.779Z,44.70
2018-07-10T07:55:25.891Z,44.70
2018-07-10T07:57:53.967Z,44.70
2018-07-10T08:00:22.104Z,44.70
2018-07-10T08:02:50.161Z,44.80
2018-07-10T08:05:18.232Z,44.60
2018-07-10T08:07:46.315Z,44.50
2018-07-10T08:10:14.421Z,44.50
2018-07-10T08:12:42.520Z,44.50
2018-07-10T08:15:11.280Z,44.50
2018-07-10T08:17:39.371Z,44.40
2018-07-10T08:20:07.516Z,44.40
2018-07-10T08:22:35.812Z,44.50
2018-07-10T08:25:04.635Z,44.30
2018-07-10T08:27:39.543Z,44.10
2018-07-10T08:30:08.034Z,44.00
2018-07-10T08:32:36.124Z,43.90
2018-07-10T08:35:04.200Z,43.60
2018-07-10T08:37:32.308Z,43.60
2018-07-10T08:40:00.391Z,43.50
2018-07-10T08:42:28.574Z,43.50
2018-07-10T08:44:56.638Z,43.40
2018-07-10T08:47:24.733Z,43.10
2018-07-10T08:49:53.386Z,43.10
2018-07-10T08:52:21.472Z,43.20
2018-07-10T08:54:49.567Z,43.30
2018-07-10T08:57:17.695Z,44.00
2018-07-10T08:59:45.843Z,43.50
2018-07-10T09:02:13.892Z,43.60
2018-07-10T09:04:41.992Z,43.80
2018-07-10T09:07:10.087Z,44.00
2018-07-10T09:09:38.179Z,44.00
2018-07-10T09:12:06.280Z,44.10
2018-07-10T09:14:34.407Z,43.90
2018-07-10T09:17:02.524Z,44.40
2018-07-10T09:22:02.860Z,42.60
2018-07-10T09:24:31.403Z,42.10
2018-07-10T09:26:59.510Z,41.90
2018-07-10T09:29:27.626Z,41.60
2018-07-10T09:31:56.326Z,41.90
2018-07-10T09:34:24.438Z,42.10
2018-07-10T09:36:52.570Z,42.10
2018-07-10T09:39:21.312Z,41.70
2018-07-10T09:41:49.559Z,41.50
2018-07-10T09:44:17.695Z,41.40
2018-07-10T09:46:46.234Z,41.20
2018-07-10T09:49:14.348Z,40.80
2018-07-10T09:51:42.480Z,40.60
2018-07-10T09:54:11.084Z,40.40
2018-07-10T09:56:39.264Z,40.40
2018-07-10T10:01:36.104Z,40.80
2018-07-10T10:04:04.788Z,41.00
2018-07-10T10:06:32.967Z,40.80
2018-07-10T10:09:01.195Z,40.30
2018-07-10T10:11:29.322Z,40.20
2018-07-10T10:13:57.451Z,40.10
2018-07-10T10:16:25.576Z,39.90
2018-07-10T10:18:54.867Z,39.00
2018-07-10T10:21:22.955Z,38.60
2018-07-10T10:23:51.053Z,38.50
2018-07-10T10:26:20.707Z,38.20
2018-07-10T10:28:48.847Z,38.50
2018-07-10T10:31:16.970Z,39.00
2018-07-10T10:33:45.109Z,39.50
2018-07-10T10:36:13.196Z,39.60
2018-07-10T10:38:44.778Z,39.40
2018-07-10T10:41:13.799Z,39.30
2018-07-10T10:43:42.139Z,39.10
2018-07-10T10:46:10.227Z,38.70
2018-07-10T10:48:38.326Z,38.20
2018-07-10T10:51:06.429Z,37.70
2018-07-10T10:53:34.555Z,37.00
2018-07-10T10:56:02.694Z,36.40
2018-07-10T10:58:30.848Z,36.20
2018-07-10T11:00:58.980Z,36.90
2018-07-10T11:03:27.044Z,36.60
2018-07-10T11:05:55.192Z,36.20
2018-07-10T11:08:23.283Z,36.00
2018-07-10T11:10:51.383Z,35.50
2018-07-10T11:13:19.487Z,35.10
2018-07-10T11:15:48.839Z,35.00
2018-07-10T11:18:35.238Z,34.80
2018-07-10T11:21:09.987Z,34.60
2018-07-10T11:23:43.748Z,34.80
2018-07-10T11:26:17.363Z,35.60
2018-07-10T11:28:45.467Z,36.00
2018-07-10T11:31:13.541Z,35.60
2018-07-10T11:33:41.636Z,35.30
2018-07-10T11:36:09.735Z,34.80
2018-07-10T11:38:37.823Z,34.90
2018-07-10T11:41:05.912Z,35.60
2018-07-10T11:43:34.007Z,35.30
2018-07-10T11:46:02.096Z,35.20
2018-07-10T11:48:30.190Z,35.40
2018-07-10T11:50:58.316Z,35.70
2018-07-10T11:53:26.428Z,35.90
2018-07-10T11:55:54.536Z,35.80
2018-07-10T11:58:22.653Z,35.80
2018-07-10T12:00:50.751Z,36.30
2018-07-10T12:03:18.837Z,36.60
2018-07-10T12:05:46.927Z,37.00
2018-07-10T12:08:15.028Z,37.20
2018-07-10T12:10:45.550Z,37.20
2018-07-10T12:13:13.841Z,37.10
2018-07-10T12:15:42.053Z,36.80
2018-07-10T12:18:14.019Z,36.10
2018-07-10T12:20:42.620Z,35.30
2018-07-10T12:23:11.679Z,34.80
2018-07-10T12:25:42.058Z,34.40
2018-07-10T12:28:11.347Z,34.40
2018-07-10T12:30:39.453Z,35.20
2018-07-10T12:33:08.003Z,35.80
2018-07-10T12:35:36.219Z,35.60
2018-07-10T12:38:04.281Z,35.80
2018-07-10T12:40:32.381Z,36.00
2018-07-10T12:43:00.474Z,36.00
2018-07-10T12:45:28.551Z,36.10
2018-07-10T12:47:57.523Z,35.80
2018-07-10T12:50:25.606Z,35.90
2018-07-10T12:52:53.676Z,35.10
2018-07-10T12:55:23.435Z,34.90
2018-07-10T12:57:51.533Z,35.10
2018-07-10T13:00:19.638Z,35.60
2018-07-10T13:02:50.863Z,36.10
2018-07-10T13:05:19.775Z,35.70
2018-07-10T13:07:47.897Z,35.20
2018-07-10T13:10:16.067Z,34.70
2018-07-10T13:12:44.513Z,34.40
2018-07-10T13:15:12.651Z,34.30
2018-07-10T13:17:42.111Z,34.20
2018-07-10T13:20:10.238Z,34.20
2018-07-10T13:22:38.419Z,34.10
2018-07-10T13:25:06.502Z,34.00
2018-07-10T13:27:34.709Z,33.80
2018-07-10T13:30:03.101Z,33.80
2018-07-10T13:32:31.208Z,33.80
2018-07-10T13:34:59.468Z,33.80
2018-07-10T13:37:28.619Z,33.80
2018-07-10T13:40:00.401Z,33.90
2018-07-10T13:43:02.206Z,34.20
2018-07-10T13:45:31.159Z,34.90
2018-07-10T13:47:59.248Z,34.00
2018-07-10T13:50:29.142Z,33.50
2018-07-10T13:52:58.400Z,33.40
2018-07-10T13:55:26.852Z,33.30
2018-07-10T13:58:31.471Z,33.40
2018-07-10T14:01:00.863Z,33.50
2018-07-10T14:03:28.916Z,33.90
2018-07-10T14:10:52.752Z,34.30
2018-07-10T14:13:20.851Z,34.40
2018-07-10T14:15:48.930Z,34.20
2018-07-10T14:18:17.679Z,33.90
2018-07-10T14:20:55.289Z,33.60
2018-07-10T14:23:23.561Z,33.20
2018-07-10T14:26:00.407Z,32.60
2018-07-10T14:30:56.421Z,31.50
2018-07-10T14:33:24.583Z,31.50
2018-07-10T14:35:52.684Z,31.80
2018-07-10T14:38:29.139Z,32.10
2018-07-10T14:40:58.931Z,32.50
2018-07-10T14:43:43.635Z,32.70
2018-07-10T14:46:14.707Z,32.70
2018-07-10T14:48:53.110Z,33.00
2018-07-10T14:51:26.069Z,32.90
2018-07-10T14:53:54.223Z,32.70
2018-07-10T14:56:22.392Z,32.60
2018-07-10T14:58:50.677Z,32.40
2018-07-10T15:01:18.756Z,32.00
2018-07-10T15:03:46.960Z,31.80
2018-07-10T15:06:15.072Z,31.30
2018-07-10T15:08:43.259Z,31.10
2018-07-10T15:11:11.368Z,31.10
2018-07-10T15:16:44.944Z,31.00
2018-07-10T15:19:15.020Z,31.00
2018-07-10T15:21:43.160Z,31.00
2018-07-10T15:24:11.416Z,31.00
2018-07-10T15:26:39.912Z,31.00
2018-07-10T15:29:08.059Z,31.00
2018-07-10T15:31:36.157Z,30.80
2018-07-10T15:34:04.319Z,30.70
2018-07-10T15:36:32.416Z,30.60
2018-07-10T15:39:01.107Z,30.30
2018-07-10T15:41:30.561Z,30.10
2018-07-10T15:43:58.658Z,30.40
2018-07-10T15:46:26.802Z,30.40
2018-07-10T15:48:54.939Z,30.60
2018-07-10T15:51:23.067Z,30.70
2018-07-10T15:53:51.185Z,31.00
2018-07-10T15:58:47.213Z,31.10
2018-07-10T16:01:15.300Z,31.40
2018-07-10T16:03:43.403Z,31.20
2018-07-10T16:06:12.332Z,31.30
2018-07-10T16:08:40.452Z,31.30
2018-07-10T16:11:08.574Z,31.40
2018-07-10T16:13:42.271Z,31.70
2018-07-10T16:16:15.142Z,32.00
2018-07-10T16:18:48.552Z,32.10
2018-07-10T16:21:16.653Z,32.40
2018-07-10T16:23:44.788Z,32.50
2018-07-10T16:26:19.834Z,32.60
2018-07-10T16:28:47.943Z,32.50
2018-07-10T16:31:17.665Z,32.50
2018-07-10T16:33:45.900Z,32.40
2018-07-10T16:36:14.302Z,32.60
2018-07-10T16:38:43.083Z,32.50
2018-07-10T16:41:17.915Z,32.60
2018-07-10T16:43:46.392Z,32.70
2018-07-10T16:46:17.195Z,32.90
2018-07-10T16:49:24.339Z,33.10
2018-07-10T16:52:07.718Z,33.20
2018-07-10T16:54:35.890Z,33.40
2018-07-10T16:57:04.052Z,33.50
2018-07-10T16:59:32.171Z,33.50
2018-07-10T17:02:00.294Z,33.60
2018-07-10T17:04:28.407Z,33.60
2018-07-10T17:06:56.555Z,33.60
2018-07-10T17:09:24.750Z,33.60
2018-07-10T17:11:52.833Z,33.60
2018-07-10T17:14:20.927Z,33.60
2018-07-10T17:21:44.832Z,34.00
2018-07-10T17:24:12.994Z,34.10
2018-07-10T17:29:10.472Z,34.30
2018-07-10T17:31:38.869Z,34.30
2018-07-10T17:36:34.980Z,34.60
2018-07-10T17:39:04.726Z,34.80
2018-07-10T17:41:34.563Z,34.70
2018-07-10T17:44:03.323Z,34.80
2018-07-10T17:46:32.381Z,35.00
2018-07-10T17:49:00.860Z,35.00
2018-07-10T17:51:29.015Z,35.10
2018-07-10T17:53:57.120Z,35.20
2018-07-10T17:56:25.238Z,35.20
2018-07-10T17:58:53.709Z,35.20
2018-07-10T18:01:22.019Z,35.10
2018-07-10T18:03:50.599Z,35.10
2018-07-10T18:06:19.553Z,35.20
2018-07-10T18:08:47.731Z,35.20
2018-07-10T18:11:15.999Z,36.00
2018-07-10T18:13:44.358Z,35.20
2018-07-10T18:18:41.160Z,35.20
2018-07-10T18:21:10.132Z,35.10
2018-07-10T18:23:39.309Z,35.00
2018-07-10T18:26:08.018Z,35.60
2018-07-10T18:28:36.677Z,35.00
2018-07-10T18:33:33.549Z,35.10
2018-07-10T18:36:02.185Z,35.10
2018-07-10T18:38:30.371Z,35.20
2018-07-10T18:40:58.919Z,35.20
2018-07-10T18:45:55.878Z,35.10
2018-07-10T18:48:31.607Z,35.10
2018-07-10T18:51:00.568Z,35.00
2018-07-10T18:53:28.756Z,35.10
2018-07-10T18:55:57.291Z,35.20
2018-07-10T18:58:36.522Z,35.20
2018-07-10T19:01:08.078Z,35.40
2018-07-10T19:03:37.523Z,35.50
2018-07-10T19:06:10.323Z,35.50
2018-07-10T19:08:40.100Z,35.50
2018-07-10T19:11:09.127Z,35.50
2018-07-10T19:16:06.966Z,35.80
2018-07-10T19:18:35.937Z,35.60
2018-07-10T19:21:40.563Z,35.80
2018-07-10T19:24:15.683Z,35.70
2018-07-10T19:26:44.338Z,35.70
2018-07-10T19:29:15.088Z,35.70
2018-07-10T19:31:43.811Z,35.80
2018-07-10T19:34:22.578Z,35.90
2018-07-10T19:36:55.814Z,35.80
2018-07-10T19:39:24.443Z,35.90
2018-07-10T19:41:52.608Z,35.90
2018-07-10T19:44:20.836Z,36.00
2018-07-10T19:46:49.692Z,36.00
2018-07-10T19:49:18.551Z,36.00
2018-07-10T19:51:49.586Z,35.90
2018-07-10T19:54:18.751Z,35.90
2018-07-10T19:56:47.136Z,35.90
2018-07-10T19:59:16.755Z,36.00
2018-07-10T20:01:54.597Z,36.00
2018-07-10T20:04:58.659Z,36.00
2018-07-10T20:07:30.843Z,36.20
2018-07-10T20:10:04.503Z,36.20
2018-07-10T20:12:37.168Z,36.30
2018-07-10T20:15:13.861Z,36.10
2018-07-10T20:17:53.134Z,36.20
2018-07-10T20:23:03.566Z,36.40
2018-07-10T20:25:40.888Z,36.40
2018-07-10T20:28:15.428Z,36.30
2018-07-10T20:30:54.143Z,36.30
2018-07-10T20:33:36.743Z,36.70
2018-07-10T20:36:05.133Z,36.50
2018-07-10T20:38:33.254Z,36.40
2018-07-10T20:41:03.791Z,36.40
2018-07-10T20:43:34.580Z,36.40
2018-07-10T20:46:02.754Z,37.10
2018-07-10T20:48:35.515Z,36.50
2018-07-10T20:51:05.779Z,36.60
2018-07-10T20:53:40.242Z,36.70
2018-07-10T20:56:15.818Z,36.70
2018-07-10T20:58:48.791Z,36.70
2018-07-10T21:01:16.854Z,36.70
2018-07-10T21:03:49.103Z,36.70
2018-07-10T21:06:25.880Z,36.80
2018-07-10T21:09:05.935Z,36.90
2018-07-10T21:11:46.123Z,36.90
2018-07-10T21:14:24.023Z,36.90
2018-07-10T21:16:59.734Z,36.90
2018-07-10T21:19:40.036Z,37.10
2018-07-10T21:22:17.124Z,37.10
2018-07-10T21:24:47.959Z,37.20
2018-07-10T21:27:26.912Z,37.20
2018-07-10T21:30:31.362Z,37.10
2018-07-10T21:33:04.689Z,37.00
2018-07-10T21:37:45.165Z,37.10
2018-07-10T21:42:26.923Z,37.30
2018-07-10T21:45:05.096Z,37.50
2018-07-10T21:47:41.425Z,37.80
2018-07-10T21:50:13.233Z,37.80
2018-07-10T21:52:41.445Z,38.10
2018-07-10T21:55:09.534Z,38.20
2018-07-10T21:57:40.264Z,38.30
2018-07-10T22:00:08.356Z,38.40
2018-07-10T22:02:36.639Z,38.60
2018-07-10T22:05:04.908Z,38.70
2018-07-10T22:07:33.000Z,38.60
2018-07-10T22:10:03.548Z,38.70
2018-07-10T22:12:32.028Z,38.90
2018-07-10T22:15:00.129Z,39.20
2018-07-10T22:17:28.467Z,39.00
2018-07-10T22:19:57.735Z,39.00
2018-07-10T22:22:28.560Z,39.00
2018-07-10T22:24:59.179Z,38.80
2018-07-10T22:27:27.327Z,39.00
2018-07-10T22:30:01.388Z,39.00
2018-07-10T22:33:34.045Z,39.10
2018-07-10T22:36:02.120Z,39.00
2018-07-10T22:38:30.254Z,39.10
2018-07-10T22:40:58.355Z,39.10
2018-07-10T22:43:26.452Z,39.30
2018-07-10T22:45:54.561Z,39.30
2018-07-10T22:48:22.687Z,39.20
2018-07-10T22:50:50.711Z,39.20
2018-07-10T22:53:18.833Z,39.20
2018-07-10T22:55:46.942Z,39.40
2018-07-10T22:58:15.003Z,39.40
2018-07-10T23:00:43.073Z,39.50
2018-07-10T23:03:16.053Z,39.60
2018-07-10T23:05:44.616Z,39.50
2018-07-10T23:08:12.740Z,39.70
2018-07-10T23:10:40.816Z,39.80
2018-07-10T23:13:09.411Z,39.60
2018-07-10T23:15:37.508Z,39.90
2018-07-10T23:18:05.644Z,39.80
2018-07-10T23:20:33.723Z,39.90
2018-07-10T23:23:01.863Z,39.70
2018-07-10T23:25:29.955Z,39.70
2018-07-10T23:28:03.517Z,39.80
2018-07-10T23:30:35.598Z,39.90
2018-07-10T23:33:05.221Z,39.90
2018-07-10T23:35:33.839Z,40.00
2018-07-10T23:38:06.852Z,39.90
2018-07-10T23:40:35.869Z,40.10
2018-07-10T23:43:03.952Z,40.10
2018-07-10T23:45:32.020Z,40.10
2018-07-10T23:48:03.916Z,40.30
2018-07-10T23:50:32.977Z,40.20
2018-07-10T23:53:11.318Z,40.00
2018-07-10T23:55:40.420Z,40.30
2018-07-10T23:58:08.536Z,40.20
